KFTK/FTK METAR and TAF weather

Enter ICAO airport designator
Station Type Date Time Source
KFTK METAR 2020/12/06 00:56 UTC NOAA

KFTK 060056Z AUTO 01004KT 10SM CLR 00/M02 A3009 RMK AO2 SLP200 T00021023


Station Type Date Time Source
KFTK Decoded METAR 2020/12/06 00:56 UTC NOAA

Fort Knox, KY, United States (KFTK) 37-54N 085-58W 230M
Dec 05, 2020 - 07:56 PM EST / 2020.12.06 0056 UTC
Wind: from the N (010 degrees) at 5 MPH (4 KT):0
Visibility: 10 mile(s):0
Sky conditions: clear
Temperature: 32.4 F (0.2 C)
Windchill: 28 F (-2 C):1
Dew Point: 27.9 F (-2.3 C)
Relative Humidity: 83%
Pressure (altimeter): 30.09 in. Hg (1018 hPa)
ob: KFTK 060056Z AUTO 01004KT 10SM CLR 00/M02 A3009 RMK AO2 SLP200 T00021023
cycle: 1

Station Type Date Time Source
KFTK TAF 2020/12/04 23:06 UTC NOAA

TAF TAF
AMD KFTK 042300Z 0423/0602 28010KT 9999 SCT010 BKN015 OVC040 620403 QNH2992INS
BECMG 0500/0501 26005KT 9999 BKN025 OVC040 600403 QNH2998INS
BECMG 0506/0507 24005KT 9999 NSW SCT040 BKN120 QNH3002INS TX06/0423Z TN01/0511Z LAST NO
AMDS AFT 0504 NEXT 0712

Example: see airport list